sensor_id;sensor_type;location;lat;lon;timestamp;temperature;humidity
18753;DHT22;9505;50.882;5.350;2022-07-01T00:01:26;13.00;99.90
18753;DHT22;9505;50.882;5.350;2022-07-01T00:03:53;13.00;99.90
18753;DHT22;9505;50.882;5.350;2022-07-01T00:06:19;13.00;99.90
18753;DHT22;9505;50.882;5.350;2022-07-01T00:08:45;13.00;99.90
18753;DHT22;9505;50.882;5.350;2022-07-01T00:11:12;13.00;99.90
18753;DHT22;9505;50.882;5.350;2022-07-01T00:13:37;12.90;99.90
18753;DHT22;9505;50.882;5.350;2022-07-01T00:16:03;12.90;99.90
18753;DHT22;9505;50.882;5.350;2022-07-01T00:18:29;12.90;99.90
18753;DHT22;9505;50.882;5.350;2022-07-01T00:20:55;12.80;99.90
18753;DHT22;9505;50.882;5.350;2022-07-01T00:23:21;12.70;99.90
18753;DHT22;9505;50.882;5.350;2022-07-01T00:25:47;12.70;99.90
18753;DHT22;9505;50.882;5.350;2022-07-01T00:28:13;12.70;99.90
18753;DHT22;9505;50.882;5.350;2022-07-01T00:30:39;12.70;99.90
18753;DHT22;9505;50.882;5.350;2022-07-01T00:33:04;12.70;99.90
18753;DHT22;9505;50.882;5.350;2022-07-01T00:35:30;12.60;99.90
18753;DHT22;9505;50.882;5.350;2022-07-01T00:37:56;12.60;99.90
18753;DHT22;9505;50.882;5.350;2022-07-01T00:40:25;12.60;99.90
18753;DHT22;9505;50.882;5.350;2022-07-01T00:42:51;12.60;99.90
18753;DHT22;9505;50.882;5.350;2022-07-01T00:45:17;12.50;99.90
18753;DHT22;9505;50.882;5.350;2022-07-01T00:47:43;12.50;99.90
18753;DHT22;9505;50.882;5.350;2022-07-01T00:50:11;12.50;99.90
18753;DHT22;9505;50.882;5.350;2022-07-01T00:52:42;12.50;99.90
18753;DHT22;9505;50.882;5.350;2022-07-01T00:55:11;12.50;99.90
18753;DHT22;9505;50.882;5.350;2022-07-01T00:57:38;12.50;99.90
18753;DHT22;9505;50.882;5.350;2022-07-01T01:00:12;12.50;99.90
18753;DHT22;9505;50.882;5.350;2022-07-01T01:02:39;12.50;99.90
18753;DHT22;9505;50.882;5.350;2022-07-01T01:05:06;12.50;99.90
18753;DHT22;9505;50.882;5.350;2022-07-01T01:07:32;12.50;99.90
18753;DHT22;9505;50.882;5.350;2022-07-01T01:09:59;12.50;99.90
18753;DHT22;9505;50.882;5.350;2022-07-01T01:12:28;12.50;99.90
18753;DHT22;9505;50.882;5.350;2022-07-01T01:14:54;12.50;99.90
18753;DHT22;9505;50.882;5.350;2022-07-01T01:17:20;12.50;99.90
18753;DHT22;9505;50.882;5.350;2022-07-01T01:19:49;12.50;99.90
18753;DHT22;9505;50.882;5.350;2022-07-01T01:22:17;12.50;99.90
18753;DHT22;9505;50.882;5.350;2022-07-01T01:24:44;12.50;99.90
18753;DHT22;9505;50.882;5.350;2022-07-01T01:27:11;12.60;99.90
18753;DHT22;9505;50.882;5.350;2022-07-01T01:29:37;12.70;99.90
18753;DHT22;9505;50.882;5.350;2022-07-01T01:32:04;12.80;99.90
18753;DHT22;9505;50.882;5.350;2022-07-01T01:34:31;12.90;99.90
18753;DHT22;9505;50.882;5.350;2022-07-01T01:36:57;12.90;99.90
18753;DHT22;9505;50.882;5.350;2022-07-01T01:39:23;12.90;99.90
18753;DHT22;9505;50.882;5.350;2022-07-01T01:41:49;13.00;99.90
18753;DHT22;9505;50.882;5.350;2022-07-01T01:44:14;13.00;99.90
18753;DHT22;9505;50.882;5.350;2022-07-01T01:46:40;13.00;99.90
18753;DHT22;9505;50.882;5.350;2022-07-01T01:49:06;13.00;99.90
18753;DHT22;9505;50.882;5.350;2022-07-01T01:51:32;13.00;99.90
18753;DHT22;9505;50.882;5.350;2022-07-01T01:53:59;13.10;99.90
18753;DHT22;9505;50.882;5.350;2022-07-01T01:56:26;13.10;99.90
18753;DHT22;9505;50.882;5.350;2022-07-01T01:58:52;13.20;99.90
18753;DHT22;9505;50.882;5.350;2022-07-01T02:01:19;13.20;99.90
18753;DHT22;9505;50.882;5.350;2022-07-01T02:03:46;13.20;99.90
18753;DHT22;9505;50.882;5.350;2022-07-01T02:06:13;13.20;99.90
18753;DHT22;9505;50.882;5.350;2022-07-01T02:08:40;13.20;99.90
18753;DHT22;9505;50.882;5.350;2022-07-01T02:11:06;13.30;99.90
18753;DHT22;9505;50.882;5.350;2022-07-01T02:13:33;13.30;99.90
18753;DHT22;9505;50.882;5.350;2022-07-01T02:15:59;13.30;99.90
18753;DHT22;9505;50.882;5.350;2022-07-01T02:18:25;13.20;99.90
18753;DHT22;9505;50.882;5.350;2022-07-01T02:20:51;13.30;99.90
18753;DHT22;9505;50.882;5.350;2022-07-01T02:23:17;13.20;99.90
18753;DHT22;9505;50.882;5.350;2022-07-01T02:25:42;13.20;99.90
18753;DHT22;9505;50.882;5.350;2022-07-01T02:28:09;13.30;99.90
18753;DHT22;9505;50.882;5.350;2022-07-01T02:30:34;13.30;99.90
18753;DHT22;9505;50.882;5.350;2022-07-01T02:33:06;13.30;99.90
18753;DHT22;9505;50.882;5.350;2022-07-01T02:35:34;13.30;99.90
18753;DHT22;9505;50.882;5.350;2022-07-01T02:38:00;13.30;99.90
18753;DHT22;9505;50.882;5.350;2022-07-01T02:40:26;13.20;99.90
18753;DHT22;9505;50.882;5.350;2022-07-01T02:42:52;13.20;99.90
18753;DHT22;9505;50.882;5.350;2022-07-01T02:45:17;13.10;99.90
18753;DHT22;9505;50.882;5.350;2022-07-01T02:47:43;13.10;99.90
18753;DHT22;9505;50.882;5.350;2022-07-01T02:50:12;13.00;99.90
18753;DHT22;9505;50.882;5.350;2022-07-01T02:52:39;13.00;99.90
18753;DHT22;9505;50.882;5.350;2022-07-01T02:55:06;12.90;99.90
18753;DHT22;9505;50.882;5.350;2022-07-01T02:57:32;12.90;99.90
18753;DHT22;9505;50.882;5.350;2022-07-01T02:59:58;12.90;99.90
18753;DHT22;9505;50.882;5.350;2022-07-01T03:02:24;12.80;99.90
18753;DHT22;9505;50.882;5.350;2022-07-01T03:04:51;12.80;99.90
18753;DHT22;9505;50.882;5.350;2022-07-01T03:07:17;12.80;99.90
18753;DHT22;9505;50.882;5.350;2022-07-01T03:09:43;12.70;99.90
18753;DHT22;9505;50.882;5.350;2022-07-01T03:12:10;12.70;99.90
18753;DHT22;9505;50.882;5.350;2022-07-01T03:15:03;12.70;99.90
18753;DHT22;9505;50.882;5.350;2022-07-01T03:17:31;12.70;99.90
18753;DHT22;9505;50.882;5.350;2022-07-01T03:19:56;12.70;99.90
18753;DHT22;9505;50.882;5.350;2022-07-01T03:22:25;12.70;99.90
18753;DHT22;9505;50.882;5.350;2022-07-01T03:24:52;12.60;99.90
18753;DHT22;9505;50.882;5.350;2022-07-01T03:27:19;12.60;99.90
18753;DHT22;9505;50.882;5.350;2022-07-01T03:29:45;12.60;99.90
18753;DHT22;9505;50.882;5.350;2022-07-01T03:32:12;12.70;99.90
18753;DHT22;9505;50.882;5.350;2022-07-01T03:34:39;12.70;99.90
18753;DHT22;9505;50.882;5.350;2022-07-01T03:37:05;12.60;99.90
18753;DHT22;9505;50.882;5.350;2022-07-01T03:39:32;12.60;99.90
18753;DHT22;9505;50.882;5.350;2022-07-01T03:41:58;12.70;99.90
18753;DHT22;9505;50.882;5.350;2022-07-01T03:44:24;12.70;99.90
18753;DHT22;9505;50.882;5.350;2022-07-01T03:46:49;12.70;99.90
18753;DHT22;9505;50.882;5.350;2022-07-01T03:49:15;12.80;99.90
18753;DHT22;9505;50.882;5.350;2022-07-01T03:51:40;12.80;99.90
18753;DHT22;9505;50.882;5.350;2022-07-01T03:54:06;12.80;99.90
18753;DHT22;9505;50.882;5.350;2022-07-01T03:56:50;12.90;99.90
18753;DHT22;9505;50.882;5.350;2022-07-01T03:59:16;12.90;99.90
18753;DHT22;9505;50.882;5.350;2022-07-01T04:01:42;13.00;99.90
18753;DHT22;9505;50.882;5.350;2022-07-01T04:04:07;13.10;99.90
18753;DHT22;9505;50.882;5.350;2022-07-01T04:06:33;13.20;99.90
18753;DHT22;9505;50.882;5.350;2022-07-01T04:08:59;13.10;99.90
18753;DHT22;9505;50.882;5.350;2022-07-01T04:11:25;13.20;99.90
18753;DHT22;9505;50.882;5.350;2022-07-01T04:13:50;13.30;99.90
18753;DHT22;9505;50.882;5.350;2022-07-01T04:16:18;13.30;99.90
18753;DHT22;9505;50.882;5.350;2022-07-01T04:18:44;13.40;99.90
18753;DHT22;9505;50.882;5.350;2022-07-01T04:21:10;13.40;99.90
18753;DHT22;9505;50.882;5.350;2022-07-01T04:23:54;13.40;99.90
18753;DHT22;9505;50.882;5.350;2022-07-01T04:26:25;13.40;99.90
18753;DHT22;9505;50.882;5.350;2022-07-01T04:28:51;13.50;99.90
18753;DHT22;9505;50.882;5.350;2022-07-01T04:31:17;13.50;99.90
18753;DHT22;9505;50.882;5.350;2022-07-01T04:33:44;13.60;99.90
18753;DHT22;9505;50.882;5.350;2022-07-01T04:36:10;13.60;99.90
18753;DHT22;9505;50.882;5.350;2022-07-01T04:38:36;13.60;99.90
18753;DHT22;9505;50.882;5.350;2022-07-01T04:41:01;13.70;99.90
18753;DHT22;9505;50.882;5.350;2022-07-01T04:43:45;13.80;99.90
18753;DHT22;9505;50.882;5.350;2022-07-01T04:46:11;13.80;99.90
18753;DHT22;9505;50.882;5.350;2022-07-01T04:48:37;13.80;99.90
18753;DHT22;9505;50.882;5.350;2022-07-01T04:51:02;13.90;99.90
18753;DHT22;9505;50.882;5.350;2022-07-01T04:53:28;14.00;99.90
18753;DHT22;9505;50.882;5.350;2022-07-01T04:55:53;13.90;99.90
18753;DHT22;9505;50.882;5.350;2022-07-01T04:58:19;13.90;99.90
18753;DHT22;9505;50.882;5.350;2022-07-01T05:00:45;14.00;99.90
18753;DHT22;9505;50.882;5.350;2022-07-01T05:03:10;14.00;99.90
18753;DHT22;9505;50.882;5.350;2022-07-01T05:05:36;14.00;99.90
18753;DHT22;9505;50.882;5.350;2022-07-01T05:08:01;14.00;99.90
18753;DHT22;9505;50.882;5.350;2022-07-01T05:10:27;14.10;99.90
18753;DHT22;9505;50.882;5.350;2022-07-01T05:12:54;14.10;99.90
18753;DHT22;9505;50.882;5.350;2022-07-01T05:15:19;14.10;99.90
18753;DHT22;9505;50.882;5.350;2022-07-01T05:17:45;14.10;99.90
18753;DHT22;9505;50.882;5.350;2022-07-01T05:20:29;14.10;99.90
18753;DHT22;9505;50.882;5.350;2022-07-01T05:23:13;14.10;99.90
18753;DHT22;9505;50.882;5.350;2022-07-01T05:25:39;14.20;99.90
18753;DHT22;9505;50.882;5.350;2022-07-01T05:28:04;14.20;99.90
18753;DHT22;9505;50.882;5.350;2022-07-01T05:30:30;14.40;99.90
18753;DHT22;9505;50.882;5.350;2022-07-01T05:32:56;14.60;99.90
18753;DHT22;9505;50.882;5.350;2022-07-01T05:35:21;14.50;99.90
18753;DHT22;9505;50.882;5.350;2022-07-01T05:37:47;14.40;99.90
18753;DHT22;9505;50.882;5.350;2022-07-01T05:40:12;14.50;99.90
18753;DHT22;9505;50.882;5.350;2022-07-01T05:42:38;14.70;99.90
18753;DHT22;9505;50.882;5.350;2022-07-01T05:45:04;16.60;99.90
18753;DHT22;9505;50.882;5.350;2022-07-01T05:47:30;19.70;99.90
18753;DHT22;9505;50.882;5.350;2022-07-01T05:49:55;21.60;99.90
18753;DHT22;9505;50.882;5.350;2022-07-01T05:52:21;22.80;99.90
18753;DHT22;9505;50.882;5.350;2022-07-01T05:54:46;22.60;99.90
18753;DHT22;9505;50.882;5.350;2022-07-01T05:57:12;22.30;99.90
18753;DHT22;9505;50.882;5.350;2022-07-01T05:59:38;21.80;99.90
18753;DHT22;9505;50.882;5.350;2022-07-01T06:02:03;20.30;99.90
18753;DHT22;9505;50.882;5.350;2022-07-01T06:04:29;17.90;99.90
18753;DHT22;9505;50.882;5.350;2022-07-01T06:06:55;17.30;99.90
18753;DHT22;9505;50.882;5.350;2022-07-01T06:09:20;16.60;99.90
18753;DHT22;9505;50.882;5.350;2022-07-01T06:11:46;17.10;99.90
18753;DHT22;9505;50.882;5.350;2022-07-01T06:14:12;19.20;99.90
18753;DHT22;9505;50.882;5.350;2022-07-01T06:16:37;20.00;99.90
18753;DHT22;9505;50.882;5.350;2022-07-01T06:19:04;19.10;99.90
18753;DHT22;9505;50.882;5.350;2022-07-01T06:21:30;18.70;99.90
18753;DHT22;9505;50.882;5.350;2022-07-01T06:23:56;19.60;99.90
18753;DHT22;9505;50.882;5.350;2022-07-01T06:26:21;21.10;99.90
18753;DHT22;9505;50.882;5.350;2022-07-01T06:28:47;22.30;99.90
18753;DHT22;9505;50.882;5.350;2022-07-01T06:31:12;22.90;99.90
18753;DHT22;9505;50.882;5.350;2022-07-01T06:33:38;23.90;99.90
18753;DHT22;9505;50.882;5.350;2022-07-01T06:36:04;24.60;99.90
18753;DHT22;9505;50.882;5.350;2022-07-01T06:38:29;24.30;99.90
18753;DHT22;9505;50.882;5.350;2022-07-01T06:40:55;23.00;99.90
18753;DHT22;9505;50.882;5.350;2022-07-01T06:43:40;23.00;99.90
18753;DHT22;9505;50.882;5.350;2022-07-01T06:46:05;25.40;99.90
18753;DHT22;9505;50.882;5.350;2022-07-01T06:48:31;25.40;99.90
18753;DHT22;9505;50.882;5.350;2022-07-01T06:50:56;22.70;99.90
18753;DHT22;9505;50.882;5.350;2022-07-01T06:53:22;20.00;99.90
18753;DHT22;9505;50.882;5.350;2022-07-01T06:55:48;19.20;99.90
18753;DHT22;9505;50.882;5.350;2022-07-01T06:58:13;18.80;99.90
18753;DHT22;9505;50.882;5.350;2022-07-01T07:00:39;19.20;99.90
18753;DHT22;9505;50.882;5.350;2022-07-01T07:03:05;20.60;99.90
18753;DHT22;9505;50.882;5.350;2022-07-01T07:05:30;22.70;99.90
18753;DHT22;9505;50.882;5.350;2022-07-01T07:07:57;24.00;99.90
18753;DHT22;9505;50.882;5.350;2022-07-01T07:10:22;25.40;99.90
18753;DHT22;9505;50.882;5.350;2022-07-01T07:12:48;23.10;99.90
18753;DHT22;9505;50.882;5.350;2022-07-01T07:15:14;21.10;99.90
18753;DHT22;9505;50.882;5.350;2022-07-01T07:17:41;21.10;99.90
18753;DHT22;9505;50.882;5.350;2022-07-01T07:20:07;21.90;99.90
18753;DHT22;9505;50.882;5.350;2022-07-01T07:22:33;20.90;99.90
18753;DHT22;9505;50.882;5.350;2022-07-01T07:25:00;21.60;99.90
18753;DHT22;9505;50.882;5.350;2022-07-01T07:27:26;23.70;99.90
18753;DHT22;9505;50.882;5.350;2022-07-01T07:29:51;25.30;99.90
18753;DHT22;9505;50.882;5.350;2022-07-01T07:32:17;24.90;99.90
18753;DHT22;9505;50.882;5.350;2022-07-01T07:34:43;24.60;99.90
18753;DHT22;9505;50.882;5.350;2022-07-01T07:37:09;23.50;99.90
18753;DHT22;9505;50.882;5.350;2022-07-01T07:39:34;23.00;99.90
18753;DHT22;9505;50.882;5.350;2022-07-01T07:42:00;24.50;99.90
18753;DHT22;9505;50.882;5.350;2022-07-01T07:44:26;25.90;99.90
18753;DHT22;9505;50.882;5.350;2022-07-01T07:46:52;25.60;99.90
18753;DHT22;9505;50.882;5.350;2022-07-01T07:49:18;25.50;99.90
18753;DHT22;9505;50.882;5.350;2022-07-01T07:51:43;25.70;99.90
18753;DHT22;9505;50.882;5.350;2022-07-01T07:54:09;27.10;99.90
18753;DHT22;9505;50.882;5.350;2022-07-01T07:56:34;26.60;99.90
18753;DHT22;9505;50.882;5.350;2022-07-01T07:59:00;25.30;99.90
18753;DHT22;9505;50.882;5.350;2022-07-01T08:01:26;23.90;99.90
18753;DHT22;9505;50.882;5.350;2022-07-01T08:03:52;23.40;99.90
18753;DHT22;9505;50.882;5.350;2022-07-01T08:06:18;22.60;99.90
18753;DHT22;9505;50.882;5.350;2022-07-01T08:08:43;23.10;99.90
18753;DHT22;9505;50.882;5.350;2022-07-01T08:11:09;22.70;99.90
18753;DHT22;9505;50.882;5.350;2022-07-01T08:13:35;21.90;99.90
18753;DHT22;9505;50.882;5.350;2022-07-01T08:16:00;21.10;99.90
18753;DHT22;9505;50.882;5.350;2022-07-01T08:18:26;20.60;99.90
18753;DHT22;9505;50.882;5.350;2022-07-01T08:20:52;19.70;99.90
18753;DHT22;9505;50.882;5.350;2022-07-01T08:23:21;19.10;99.90
18753;DHT22;9505;50.882;5.350;2022-07-01T08:25:48;19.60;99.90
18753;DHT22;9505;50.882;5.350;2022-07-01T08:28:14;20.30;99.90
18753;DHT22;9505;50.882;5.350;2022-07-01T08:30:40;20.10;99.90
18753;DHT22;9505;50.882;5.350;2022-07-01T08:33:05;20.10;99.90
18753;DHT22;9505;50.882;5.350;2022-07-01T08:35:31;20.20;99.90
18753;DHT22;9505;50.882;5.350;2022-07-01T08:37:57;20.40;99.90
18753;DHT22;9505;50.882;5.350;2022-07-01T08:40:27;19.90;99.90
18753;DHT22;9505;50.882;5.350;2022-07-01T08:43:02;19.20;99.90
18753;DHT22;9505;50.882;5.350;2022-07-01T08:45:29;19.60;99.90
18753;DHT22;9505;50.882;5.350;2022-07-01T08:47:56;20.10;99.90
18753;DHT22;9505;50.882;5.350;2022-07-01T08:50:26;20.30;99.90
18753;DHT22;9505;50.882;5.350;2022-07-01T08:52:52;20.70;99.90
18753;DHT22;9505;50.882;5.350;2022-07-01T08:55:22;20.50;99.90
18753;DHT22;9505;50.882;5.350;2022-07-01T08:57:48;20.10;99.90
18753;DHT22;9505;50.882;5.350;2022-07-01T09:00:14;19.90;99.90
18753;DHT22;9505;50.882;5.350;2022-07-01T09:05:19;19.70;99.90
18753;DHT22;9505;50.882;5.350;2022-07-01T09:07:46;19.70;99.90
18753;DHT22;9505;50.882;5.350;2022-07-01T09:10:18;19.90;99.90
18753;DHT22;9505;50.882;5.350;2022-07-01T09:12:46;19.60;99.90
18753;DHT22;9505;50.882;5.350;2022-07-01T09:15:23;18.80;99.90
18753;DHT22;9505;50.882;5.350;2022-07-01T09:17:53;18.50;99.90
18753;DHT22;9505;50.882;5.350;2022-07-01T09:20:28;18.60;99.90
18753;DHT22;9505;50.882;5.350;2022-07-01T09:23:18;18.90;99.90
18753;DHT22;9505;50.882;5.350;2022-07-01T09:25:47;19.70;99.90
18753;DHT22;9505;50.882;5.350;2022-07-01T09:28:17;20.60;99.90
18753;DHT22;9505;50.882;5.350;2022-07-01T09:30:45;20.90;99.90
18753;DHT22;9505;50.882;5.350;2022-07-01T09:33:18;21.00;99.90
18753;DHT22;9505;50.882;5.350;2022-07-01T09:35:46;21.20;99.90
18753;DHT22;9505;50.882;5.350;2022-07-01T09:38:16;21.10;99.90
18753;DHT22;9505;50.882;5.350;2022-07-01T09:45:59;20.80;99.90
18753;DHT22;9505;50.882;5.350;2022-07-01T09:51:03;20.10;99.90
18753;DHT22;9505;50.882;5.350;2022-07-01T09:53:29;20.30;99.90
18753;DHT22;9505;50.882;5.350;2022-07-01T09:55:55;20.70;99.90
18753;DHT22;9505;50.882;5.350;2022-07-01T09:58:20;20.80;99.90
18753;DHT22;9505;50.882;5.350;2022-07-01T10:00:46;20.60;99.90
18753;DHT22;9505;50.882;5.350;2022-07-01T10:03:13;20.30;99.90
18753;DHT22;9505;50.882;5.350;2022-07-01T10:05:54;20.20;99.90
18753;DHT22;9505;50.882;5.350;2022-07-01T10:13:53;21.50;99.90
18753;DHT22;9505;50.882;5.350;2022-07-01T10:16:20;21.20;99.90
18753;DHT22;9505;50.882;5.350;2022-07-01T10:18:45;20.50;99.90
18753;DHT22;9505;50.882;5.350;2022-07-01T10:21:26;20.30;99.90
18753;DHT22;9505;50.882;5.350;2022-07-01T10:23:52;20.20;99.90
18753;DHT22;9505;50.882;5.350;2022-07-01T10:26:19;20.00;99.90
18753;DHT22;9505;50.882;5.350;2022-07-01T10:28:45;20.30;99.90
18753;DHT22;9505;50.882;5.350;2022-07-01T10:31:16;20.50;99.90
18753;DHT22;9505;50.882;5.350;2022-07-01T10:33:49;19.70;99.90
18753;DHT22;9505;50.882;5.350;2022-07-01T10:41:32;20.50;99.90
18753;DHT22;9505;50.882;5.350;2022-07-01T10:44:01;20.70;99.90
18753;DHT22;9505;50.882;5.350;2022-07-01T10:46:44;20.40;99.90
18753;DHT22;9505;50.882;5.350;2022-07-01T10:49:16;21.00;99.90
18753;DHT22;9505;50.882;5.350;2022-07-01T10:51:45;21.50;99.90
18753;DHT22;9505;50.882;5.350;2022-07-01T10:54:12;22.00;99.90
18753;DHT22;9505;50.882;5.350;2022-07-01T10:56:41;22.30;99.90
18753;DHT22;9505;50.882;5.350;2022-07-01T10:59:07;22.20;99.90
18753;DHT22;9505;50.882;5.350;2022-07-01T11:01:33;21.80;99.90
18753;DHT22;9505;50.882;5.350;2022-07-01T11:03:59;21.60;99.90
18753;DHT22;9505;50.882;5.350;2022-07-01T11:06:25;21.10;99.90
18753;DHT22;9505;50.882;5.350;2022-07-01T11:08:51;20.40;99.90
18753;DHT22;9505;50.882;5.350;2022-07-01T11:11:16;20.00;99.90
18753;DHT22;9505;50.882;5.350;2022-07-01T11:13:45;20.00;99.90
18753;DHT22;9505;50.882;5.350;2022-07-01T11:16:11;20.30;99.90
18753;DHT22;9505;50.882;5.350;2022-07-01T11:18:36;20.90;99.90
18753;DHT22;9505;50.882;5.350;2022-07-01T11:21:07;21.10;99.90
18753;DHT22;9505;50.882;5.350;2022-07-01T11:23:33;21.00;99.90
18753;DHT22;9505;50.882;5.350;2022-07-01T11:26:00;21.20;99.90
18753;DHT22;9505;50.882;5.350;2022-07-01T11:28:26;21.50;99.90
18753;DHT22;9505;50.882;5.350;2022-07-01T11:30:59;21.30;99.90
18753;DHT22;9505;50.882;5.350;2022-07-01T11:33:25;20.90;99.90
18753;DHT22;9505;50.882;5.350;2022-07-01T11:35:52;20.70;99.90
18753;DHT22;9505;50.882;5.350;2022-07-01T11:38:37;20.50;99.90
18753;DHT22;9505;50.882;5.350;2022-07-01T11:41:23;21.40;99.90
18753;DHT22;9505;50.882;5.350;2022-07-01T11:43:51;22.30;99.90
18753;DHT22;9505;50.882;5.350;2022-07-01T11:46:17;22.60;99.90
18753;DHT22;9505;50.882;5.350;2022-07-01T11:48:52;22.00;99.90
18753;DHT22;9505;50.882;5.350;2022-07-01T11:51:24;21.50;99.90
18753;DHT22;9505;50.882;5.350;2022-07-01T11:53:52;21.70;99.90
18753;DHT22;9505;50.882;5.350;2022-07-01T11:56:34;21.50;99.90
18753;DHT22;9505;50.882;5.350;2022-07-01T11:59:02;21.20;99.90
18753;DHT22;9505;50.882;5.350;2022-07-01T12:01:34;21.20;99.90
18753;DHT22;9505;50.882;5.350;2022-07-01T12:04:02;21.20;99.90
18753;DHT22;9505;50.882;5.350;2022-07-01T12:06:29;21.50;99.90
18753;DHT22;9505;50.882;5.350;2022-07-01T12:08:55;22.30;99.90
18753;DHT22;9505;50.882;5.350;2022-07-01T12:11:22;23.10;99.90
18753;DHT22;9505;50.882;5.350;2022-07-01T12:13:50;23.50;99.90
18753;DHT22;9505;50.882;5.350;2022-07-01T12:16:16;23.60;99.90
18753;DHT22;9505;50.882;5.350;2022-07-01T12:18:59;23.50;99.90
18753;DHT22;9505;50.882;5.350;2022-07-01T12:21:26;22.60;99.90
18753;DHT22;9505;50.882;5.350;2022-07-01T12:24:13;22.40;99.90
18753;DHT22;9505;50.882;5.350;2022-07-01T12:27:03;22.90;99.90
18753;DHT22;9505;50.882;5.350;2022-07-01T12:32:05;22.50;99.90
18753;DHT22;9505;50.882;5.350;2022-07-01T12:37:12;23.20;99.90
18753;DHT22;9505;50.882;5.350;2022-07-01T12:39:49;23.30;99.90
18753;DHT22;9505;50.882;5.350;2022-07-01T12:42:31;23.60;99.90
18753;DHT22;9505;50.882;5.350;2022-07-01T12:45:01;23.40;99.90
18753;DHT22;9505;50.882;5.350;2022-07-01T12:47:36;22.90;99.90
18753;DHT22;9505;50.882;5.350;2022-07-01T12:53:12;23.20;99.90
18753;DHT22;9505;50.882;5.350;2022-07-01T12:55:43;23.20;99.90
18753;DHT22;9505;50.882;5.350;2022-07-01T12:58:20;22.70;99.90
18753;DHT22;9505;50.882;5.350;2022-07-01T13:00:48;22.50;99.90
18753;DHT22;9505;50.882;5.350;2022-07-01T13:03:14;22.30;99.90
18753;DHT22;9505;50.882;5.350;2022-07-01T13:05:43;22.60;99.90
18753;DHT22;9505;50.882;5.350;2022-07-01T13:08:09;22.80;99.90
18753;DHT22;9505;50.882;5.350;2022-07-01T13:10:35;22.50;99.90
18753;DHT22;9505;50.882;5.350;2022-07-01T13:13:01;22.40;99.90
18753;DHT22;9505;50.882;5.350;2022-07-01T13:15:27;22.30;99.90
18753;DHT22;9505;50.882;5.350;2022-07-01T13:17:53;22.30;99.90
18753;DHT22;9505;50.882;5.350;2022-07-01T13:20:19;22.10;99.90
18753;DHT22;9505;50.882;5.350;2022-07-01T13:22:45;21.80;99.90
18753;DHT22;9505;50.882;5.350;2022-07-01T13:25:12;21.20;99.90
18753;DHT22;9505;50.882;5.350;2022-07-01T13:27:38;21.00;99.90
18753;DHT22;9505;50.882;5.350;2022-07-01T13:30:05;20.90;99.90
18753;DHT22;9505;50.882;5.350;2022-07-01T13:32:31;20.80;99.90
18753;DHT22;9505;50.882;5.350;2022-07-01T13:34:57;21.20;99.90
18753;DHT22;9505;50.882;5.350;2022-07-01T13:37:23;21.60;99.90
18753;DHT22;9505;50.882;5.350;2022-07-01T13:39:49;21.90;99.90
18753;DHT22;9505;50.882;5.350;2022-07-01T13:42:14;22.50;99.90
18753;DHT22;9505;50.882;5.350;2022-07-01T13:44:40;23.20;99.90
18753;DHT22;9505;50.882;5.350;2022-07-01T13:47:06;23.00;99.90
18753;DHT22;9505;50.882;5.350;2022-07-01T13:49:38;23.10;99.90
18753;DHT22;9505;50.882;5.350;2022-07-01T13:52:04;23.40;99.90
18753;DHT22;9505;50.882;5.350;2022-07-01T13:54:30;23.70;99.90
18753;DHT22;9505;50.882;5.350;2022-07-01T13:56:56;23.70;99.90
18753;DHT22;9505;50.882;5.350;2022-07-01T13:59:22;23.60;99.90
18753;DHT22;9505;50.882;5.350;2022-07-01T14:01:47;23.70;99.90
18753;DHT22;9505;50.882;5.350;2022-07-01T14:04:13;23.30;99.90
18753;DHT22;9505;50.882;5.350;2022-07-01T14:06:39;23.30;99.90
18753;DHT22;9505;50.882;5.350;2022-07-01T14:09:04;23.50;99.90
18753;DHT22;9505;50.882;5.350;2022-07-01T14:11:30;24.10;99.90
18753;DHT22;9505;50.882;5.350;2022-07-01T14:13:56;24.40;99.90
18753;DHT22;9505;50.882;5.350;2022-07-01T14:16:21;24.00;99.90
18753;DHT22;9505;50.882;5.350;2022-07-01T14:18:47;24.10;99.90
18753;DHT22;9505;50.882;5.350;2022-07-01T14:21:13;24.30;99.90
18753;DHT22;9505;50.882;5.350;2022-07-01T14:23:39;24.00;99.90
18753;DHT22;9505;50.882;5.350;2022-07-01T14:26:04;24.20;99.90
18753;DHT22;9505;50.882;5.350;2022-07-01T14:28:30;24.30;99.90
18753;DHT22;9505;50.882;5.350;2022-07-01T14:30:55;24.90;99.90
18753;DHT22;9505;50.882;5.350;2022-07-01T14:33:23;25.30;99.90
18753;DHT22;9505;50.882;5.350;2022-07-01T14:35:49;25.80;99.90
18753;DHT22;9505;50.882;5.350;2022-07-01T14:38:16;25.50;99.90
18753;DHT22;9505;50.882;5.350;2022-07-01T14:40:43;25.10;99.90
18753;DHT22;9505;50.882;5.350;2022-07-01T14:43:09;25.50;99.90
18753;DHT22;9505;50.882;5.350;2022-07-01T14:45:35;25.10;99.90
18753;DHT22;9505;50.882;5.350;2022-07-01T14:48:00;25.20;99.90
18753;DHT22;9505;50.882;5.350;2022-07-01T14:50:26;25.70;99.90
18753;DHT22;9505;50.882;5.350;2022-07-01T14:52:52;25.80;97.00
18753;DHT22;9505;50.882;5.350;2022-07-01T14:55:18;26.00;97.00
18753;DHT22;9505;50.882;5.350;2022-07-01T14:57:43;25.30;96.70
18753;DHT22;9505;50.882;5.350;2022-07-01T15:00:10;25.00;97.50
18753;DHT22;9505;50.882;5.350;2022-07-01T15:02:37;25.00;96.20
18753;DHT22;9505;50.882;5.350;2022-07-01T15:05:03;25.10;97.40
18753;DHT22;9505;50.882;5.350;2022-07-01T15:07:29;24.70;97.90
18753;DHT22;9505;50.882;5.350;2022-07-01T15:09:54;23.80;98.20
18753;DHT22;9505;50.882;5.350;2022-07-01T15:12:22;23.80;98.30
18753;DHT22;9505;50.882;5.350;2022-07-01T15:14:48;24.80;98.90
18753;DHT22;9505;50.882;5.350;2022-07-01T15:17:14;25.40;97.90
18753;DHT22;9505;50.882;5.350;2022-07-01T15:19:40;24.70;96.30
18753;DHT22;9505;50.882;5.350;2022-07-01T15:22:07;25.00;97.20
18753;DHT22;9505;50.882;5.350;2022-07-01T15:24:36;25.50;95.80
18753;DHT22;9505;50.882;5.350;2022-07-01T15:27:03;25.10;96.00
18753;DHT22;9505;50.882;5.350;2022-07-01T15:29:29;24.70;97.20
18753;DHT22;9505;50.882;5.350;2022-07-01T15:31:55;25.10;95.30
18753;DHT22;9505;50.882;5.350;2022-07-01T15:34:22;25.10;94.10
18753;DHT22;9505;50.882;5.350;2022-07-01T15:36:48;25.10;95.20
18753;DHT22;9505;50.882;5.350;2022-07-01T15:39:14;24.40;96.30
18753;DHT22;9505;50.882;5.350;2022-07-01T15:41:42;24.60;94.80
18753;DHT22;9505;50.882;5.350;2022-07-01T15:44:08;25.10;95.60
18753;DHT22;9505;50.882;5.350;2022-07-01T15:46:34;25.60;94.40
18753;DHT22;9505;50.882;5.350;2022-07-01T15:49:00;25.60;93.00
18753;DHT22;9505;50.882;5.350;2022-07-01T15:51:26;25.30;94.40
18753;DHT22;9505;50.882;5.350;2022-07-01T15:53:53;25.20;93.20
18753;DHT22;9505;50.882;5.350;2022-07-01T15:56:25;25.10;93.40
18753;DHT22;9505;50.882;5.350;2022-07-01T15:58:51;24.90;94.40
18753;DHT22;9505;50.882;5.350;2022-07-01T16:01:17;25.20;93.80
18753;DHT22;9505;50.882;5.350;2022-07-01T16:03:50;25.00;93.40
18753;DHT22;9505;50.882;5.350;2022-07-01T16:06:18;25.40;95.10
18753;DHT22;9505;50.882;5.350;2022-07-01T16:08:50;25.50;92.70
18753;DHT22;9505;50.882;5.350;2022-07-01T16:11:17;24.90;93.00
18753;DHT22;9505;50.882;5.350;2022-07-01T16:13:48;23.90;93.50
18753;DHT22;9505;50.882;5.350;2022-07-01T16:16:20;24.20;94.60